Aérodrome :
LOGIN :

S'inscrire | Disclaimer

   EN    FR    IT 

 










Légende :    VFR   VFR Marginal   IFR   IFR Intensif   IFR Très Intensif
Visi : 
Plafond : 
>= 8 km
>= 3000ft
5 à 8 km
1000 à 3000 ft
1500m à 5 km
500 à 1000 ft
800 à 1500m
200 à 500 ft
< 800m
< 200 ft
Symboles :   Orages  Brouillard  Fortes neiges  Fortes précipitations  Vent > 20 kt
SIGMETs :   Divers  Orages  Givrage  Turbulence  Onde Orograph.  Cendres Volcan.







- Altitude de l'aérodrome : 19 ft
- Code IATA : LCY
- Voir les cartes d'approche


EGLC - London City

DERNIER METAR :
  • 181550Z AUTO 26014KT 9999 SCT035 BKN042 09/01 Q1001

METARs EXPIRÉS :
  • 181520Z AUTO 25013KT 9999 BKN035/// BKN045/// //////CB 09/02 Q1001
  • 181450Z AUTO 25014KT 9999 SCT038/// //////TCU 09/01 Q1001
  • 181420Z AUTO 25016KT 9999 SCT038/// BKN045/// //////TCU 09/01 Q1001
  • 181350Z AUTO 26016KT 9999 BKN040 09/01 Q1001
  • 181320Z AUTO 25015KT 9999 SCT035 BKN047 10/01 Q1002

TAF TAF EGLC
Valide du 18 à 15h jusqu'au 18 à 22h UTC


181408Z 1815/1822 26014KT 9999 SCT030
PROB30
TEMPO 1815/1818 27017G27KT 4500 SHRA
ATIS : +44 20 7646 0224
Pas de NOTAMs connus pour ce terrain.



MET'MAP, la Météo Aéronautique d'un coup d'oeil ! - Copyright ORBIFLY Décembre 2007 - Disclaimer

ORBIFLY MET'MAP TEAM :

Programmation & Développement : Alexandra Zaïnal
Conception & Développement : Baudouin d'Aumeries
Co-Programmation & Développement : Marc-Olivier Méhu
Soutien technique & logistique : Manuel Goepfert

Contact : metmap@orbifly.com




SOURCES & CREDITS :

   NOAA